Terminal Aerodrome Forecast
Issued by NWS

Home | Current Version | Previous Version | Text Only | Print | Product List | Glossary On
Versions: 1 2 3 4 5 6 7 8 9 10 11 12 13 14 15 16 17 18 19 20 21 22 23 24 25 26 27 28 29 30 31
000
FTUS44 KFWD 250058 AAB
TAFDAL
TAF AMD
KDAL 250058Z 2501/2524 14013KT P6SM VCTS SCT040CB BKN150
      TEMPO 2501/2502 14015G25KT 3SM +TSRA BKN040CB
     FM250300 14012KT P6SM SCT050 BKN150
     FM251000 14010KT P6SM VCTS BKN015 OVC040CB
     FM251600 13008KT P6SM VCSH SCT025 OVC100
     FM252100 36010KT P6SM VCTS BKN040CB OVC100=

USA.gov is the U.S. government's official web portal to all federal, state and local government web resources and services.